sensor_id;sensor_type;location;lat;lon;timestamp;temperature;humidity
32095;DHT22;18608;53.688;10.748;2023-05-09T00:02:09;10.70;99.90
32095;DHT22;18608;53.688;10.748;2023-05-09T00:04:34;10.70;99.90
32095;DHT22;18608;53.688;10.748;2023-05-09T00:07:00;10.60;99.90
32095;DHT22;18608;53.688;10.748;2023-05-09T00:09:26;10.60;99.90
32095;DHT22;18608;53.688;10.748;2023-05-09T00:11:52;10.60;99.90
32095;DHT22;18608;53.688;10.748;2023-05-09T00:14:17;10.60;99.90
32095;DHT22;18608;53.688;10.748;2023-05-09T00:16:46;10.50;99.90
32095;DHT22;18608;53.688;10.748;2023-05-09T00:19:11;10.60;99.90
32095;DHT22;18608;53.688;10.748;2023-05-09T00:21:37;10.60;99.90
32095;DHT22;18608;53.688;10.748;2023-05-09T00:24:04;10.50;99.90
32095;DHT22;18608;53.688;10.748;2023-05-09T00:26:29;10.50;99.90
32095;DHT22;18608;53.688;10.748;2023-05-09T00:28:55;10.50;99.90
32095;DHT22;18608;53.688;10.748;2023-05-09T00:31:21;10.40;99.90
32095;DHT22;18608;53.688;10.748;2023-05-09T00:33:46;10.40;99.90
32095;DHT22;18608;53.688;10.748;2023-05-09T00:36:13;10.50;99.90
32095;DHT22;18608;53.688;10.748;2023-05-09T00:38:39;10.50;99.90
32095;DHT22;18608;53.688;10.748;2023-05-09T00:41:04;10.50;99.90
32095;DHT22;18608;53.688;10.748;2023-05-09T00:43:30;10.40;99.90
32095;DHT22;18608;53.688;10.748;2023-05-09T00:45:57;10.40;99.90
32095;DHT22;18608;53.688;10.748;2023-05-09T00:48:22;10.40;99.90
32095;DHT22;18608;53.688;10.748;2023-05-09T00:50:48;10.30;99.90
32095;DHT22;18608;53.688;10.748;2023-05-09T00:53:20;10.30;99.90
32095;DHT22;18608;53.688;10.748;2023-05-09T00:55:46;10.20;99.90
32095;DHT22;18608;53.688;10.748;2023-05-09T00:58:12;10.20;99.90
32095;DHT22;18608;53.688;10.748;2023-05-09T01:00:38;10.20;99.90
32095;DHT22;18608;53.688;10.748;2023-05-09T01:03:04;10.10;99.90
32095;DHT22;18608;53.688;10.748;2023-05-09T01:05:39;10.10;99.90
32095;DHT22;18608;53.688;10.748;2023-05-09T01:11:00;10.10;99.90
32095;DHT22;18608;53.688;10.748;2023-05-09T01:13:47;10.10;99.90
32095;DHT22;18608;53.688;10.748;2023-05-09T01:16:24;10.00;99.90
32095;DHT22;18608;53.688;10.748;2023-05-09T01:21:34;9.90;99.90
32095;DHT22;18608;53.688;10.748;2023-05-09T01:24:29;9.90;99.90
32095;DHT22;18608;53.688;10.748;2023-05-09T01:27:38;9.90;99.90
32095;DHT22;18608;53.688;10.748;2023-05-09T01:30:03;9.90;99.90
32095;DHT22;18608;53.688;10.748;2023-05-09T01:32:32;9.90;99.90
32095;DHT22;18608;53.688;10.748;2023-05-09T01:35:01;9.90;99.90
32095;DHT22;18608;53.688;10.748;2023-05-09T01:37:35;9.80;99.90
32095;DHT22;18608;53.688;10.748;2023-05-09T01:40:11;9.70;99.90
32095;DHT22;18608;53.688;10.748;2023-05-09T01:43:10;9.60;99.90
32095;DHT22;18608;53.688;10.748;2023-05-09T01:45:38;9.70;99.90
32095;DHT22;18608;53.688;10.748;2023-05-09T01:48:06;9.70;99.90
32095;DHT22;18608;53.688;10.748;2023-05-09T01:50:34;9.60;99.90
32095;DHT22;18608;53.688;10.748;2023-05-09T01:53:00;9.60;99.90
32095;DHT22;18608;53.688;10.748;2023-05-09T01:55:29;9.50;99.90
32095;DHT22;18608;53.688;10.748;2023-05-09T01:57:56;9.50;99.90
32095;DHT22;18608;53.688;10.748;2023-05-09T02:00:23;9.40;99.90
32095;DHT22;18608;53.688;10.748;2023-05-09T02:02:50;9.40;99.90
32095;DHT22;18608;53.688;10.748;2023-05-09T02:05:17;9.40;99.90
32095;DHT22;18608;53.688;10.748;2023-05-09T02:07:44;9.30;99.90
32095;DHT22;18608;53.688;10.748;2023-05-09T02:10:11;9.30;99.90
32095;DHT22;18608;53.688;10.748;2023-05-09T02:12:37;9.30;99.90
32095;DHT22;18608;53.688;10.748;2023-05-09T02:15:04;9.20;99.90
32095;DHT22;18608;53.688;10.748;2023-05-09T02:17:30;9.20;99.90
32095;DHT22;18608;53.688;10.748;2023-05-09T02:19:56;9.20;99.90
32095;DHT22;18608;53.688;10.748;2023-05-09T02:22:22;9.20;99.90
32095;DHT22;18608;53.688;10.748;2023-05-09T02:24:48;9.20;99.90
32095;DHT22;18608;53.688;10.748;2023-05-09T02:27:15;9.10;99.90
32095;DHT22;18608;53.688;10.748;2023-05-09T02:29:43;9.10;99.90
32095;DHT22;18608;53.688;10.748;2023-05-09T02:32:14;9.10;99.90
32095;DHT22;18608;53.688;10.748;2023-05-09T02:34:41;9.10;99.90
32095;DHT22;18608;53.688;10.748;2023-05-09T02:37:07;9.10;99.90
32095;DHT22;18608;53.688;10.748;2023-05-09T02:39:33;9.00;99.90
32095;DHT22;18608;53.688;10.748;2023-05-09T02:42:09;9.00;99.90
32095;DHT22;18608;53.688;10.748;2023-05-09T02:44:35;9.00;99.90
32095;DHT22;18608;53.688;10.748;2023-05-09T02:47:02;9.00;99.90
32095;DHT22;18608;53.688;10.748;2023-05-09T02:49:28;9.00;99.90
32095;DHT22;18608;53.688;10.748;2023-05-09T02:51:53;8.90;99.90
32095;DHT22;18608;53.688;10.748;2023-05-09T02:54:19;9.00;99.90
32095;DHT22;18608;53.688;10.748;2023-05-09T02:56:46;8.90;99.90
32095;DHT22;18608;53.688;10.748;2023-05-09T02:59:11;8.90;99.90
32095;DHT22;18608;53.688;10.748;2023-05-09T03:01:37;8.90;99.90
32095;DHT22;18608;53.688;10.748;2023-05-09T03:04:03;8.90;99.90
32095;DHT22;18608;53.688;10.748;2023-05-09T03:06:28;8.90;99.90
32095;DHT22;18608;53.688;10.748;2023-05-09T03:11:20;8.90;99.90
32095;DHT22;18608;53.688;10.748;2023-05-09T03:13:46;8.80;99.90
32095;DHT22;18608;53.688;10.748;2023-05-09T03:16:13;8.80;99.90
32095;DHT22;18608;53.688;10.748;2023-05-09T03:18:39;8.80;99.90
32095;DHT22;18608;53.688;10.748;2023-05-09T03:21:05;8.90;99.90
32095;DHT22;18608;53.688;10.748;2023-05-09T03:23:30;8.80;99.90
32095;DHT22;18608;53.688;10.748;2023-05-09T03:25:56;8.70;99.90
32095;DHT22;18608;53.688;10.748;2023-05-09T03:28:22;8.60;99.90
32095;DHT22;18608;53.688;10.748;2023-05-09T03:30:48;8.70;99.90
32095;DHT22;18608;53.688;10.748;2023-05-09T03:33:14;8.70;99.90
32095;DHT22;18608;53.688;10.748;2023-05-09T03:35:39;8.70;99.90
32095;DHT22;18608;53.688;10.748;2023-05-09T03:38:05;8.60;99.90
32095;DHT22;18608;53.688;10.748;2023-05-09T03:40:30;8.70;99.90
32095;DHT22;18608;53.688;10.748;2023-05-09T03:42:56;8.70;99.90
32095;DHT22;18608;53.688;10.748;2023-05-09T03:45:22;8.70;99.90
32095;DHT22;18608;53.688;10.748;2023-05-09T03:47:47;8.70;99.90
32095;DHT22;18608;53.688;10.748;2023-05-09T03:50:13;8.70;99.90
32095;DHT22;18608;53.688;10.748;2023-05-09T03:52:38;8.70;99.90
32095;DHT22;18608;53.688;10.748;2023-05-09T03:55:04;8.70;99.90
32095;DHT22;18608;53.688;10.748;2023-05-09T03:57:30;8.70;99.90
32095;DHT22;18608;53.688;10.748;2023-05-09T03:59:56;8.40;99.90
32095;DHT22;18608;53.688;10.748;2023-05-09T04:02:22;8.60;99.90
32095;DHT22;18608;53.688;10.748;2023-05-09T04:04:48;8.70;99.90
32095;DHT22;18608;53.688;10.748;2023-05-09T04:09:41;8.70;99.90
32095;DHT22;18608;53.688;10.748;2023-05-09T04:12:07;8.70;99.90
32095;DHT22;18608;53.688;10.748;2023-05-09T04:14:33;8.70;99.90
32095;DHT22;18608;53.688;10.748;2023-05-09T04:16:59;8.80;99.90
32095;DHT22;18608;53.688;10.748;2023-05-09T04:19:24;8.90;99.90
32095;DHT22;18608;53.688;10.748;2023-05-09T04:21:50;9.00;99.90
32095;DHT22;18608;53.688;10.748;2023-05-09T04:26:41;9.20;99.90
32095;DHT22;18608;53.688;10.748;2023-05-09T04:29:07;9.30;99.90
32095;DHT22;18608;53.688;10.748;2023-05-09T04:31:33;9.40;99.90
32095;DHT22;18608;53.688;10.748;2023-05-09T04:33:59;9.70;99.90
32095;DHT22;18608;53.688;10.748;2023-05-09T04:36:25;9.70;99.90
32095;DHT22;18608;53.688;10.748;2023-05-09T04:38:52;9.80;99.90
32095;DHT22;18608;53.688;10.748;2023-05-09T04:41:17;10.00;99.90
32095;DHT22;18608;53.688;10.748;2023-05-09T04:43:43;9.90;99.90
32095;DHT22;18608;53.688;10.748;2023-05-09T04:46:08;9.80;99.90
32095;DHT22;18608;53.688;10.748;2023-05-09T04:48:35;9.70;99.90
32095;DHT22;18608;53.688;10.748;2023-05-09T04:51:00;9.80;99.90
32095;DHT22;18608;53.688;10.748;2023-05-09T04:53:26;10.00;99.90
32095;DHT22;18608;53.688;10.748;2023-05-09T04:55:53;10.00;99.90
32095;DHT22;18608;53.688;10.748;2023-05-09T04:58:19;10.20;99.90
32095;DHT22;18608;53.688;10.748;2023-05-09T05:00:45;10.10;99.90
32095;DHT22;18608;53.688;10.748;2023-05-09T05:03:11;10.10;99.90
32095;DHT22;18608;53.688;10.748;2023-05-09T05:05:37;10.10;99.90
32095;DHT22;18608;53.688;10.748;2023-05-09T05:08:03;10.20;99.90
32095;DHT22;18608;53.688;10.748;2023-05-09T05:10:28;10.30;99.90
32095;DHT22;18608;53.688;10.748;2023-05-09T05:12:54;10.30;99.90
32095;DHT22;18608;53.688;10.748;2023-05-09T05:15:20;10.20;99.90
32095;DHT22;18608;53.688;10.748;2023-05-09T05:20:12;10.20;99.90
32095;DHT22;18608;53.688;10.748;2023-05-09T05:22:37;10.40;99.90
32095;DHT22;18608;53.688;10.748;2023-05-09T05:25:03;10.50;99.90
32095;DHT22;18608;53.688;10.748;2023-05-09T05:27:30;10.70;99.90
32095;DHT22;18608;53.688;10.748;2023-05-09T05:29:55;10.80;99.90
32095;DHT22;18608;53.688;10.748;2023-05-09T05:32:21;11.00;99.90
32095;DHT22;18608;53.688;10.748;2023-05-09T05:34:46;11.40;99.90
32095;DHT22;18608;53.688;10.748;2023-05-09T05:37:12;11.40;99.90
32095;DHT22;18608;53.688;10.748;2023-05-09T05:39:38;11.80;99.90
32095;DHT22;18608;53.688;10.748;2023-05-09T05:42:03;12.10;99.90
32095;DHT22;18608;53.688;10.748;2023-05-09T05:44:29;12.20;99.90
32095;DHT22;18608;53.688;10.748;2023-05-09T05:46:54;12.50;99.90
32095;DHT22;18608;53.688;10.748;2023-05-09T05:49:20;12.90;99.90
32095;DHT22;18608;53.688;10.748;2023-05-09T05:51:46;12.70;99.90
32095;DHT22;18608;53.688;10.748;2023-05-09T05:56:37;12.80;99.90
32095;DHT22;18608;53.688;10.748;2023-05-09T05:59:03;13.10;99.90
32095;DHT22;18608;53.688;10.748;2023-05-09T06:06:21;14.00;99.90
32095;DHT22;18608;53.688;10.748;2023-05-09T06:08:47;13.70;99.90
32095;DHT22;18608;53.688;10.748;2023-05-09T06:21:02;13.60;99.90
32095;DHT22;18608;53.688;10.748;2023-05-09T06:40:31;14.80;99.90
32095;DHT22;18608;53.688;10.748;2023-05-09T07:24:25;16.40;99.90
32095;DHT22;18608;53.688;10.748;2023-05-09T07:26:50;16.90;99.90
32095;DHT22;18608;53.688;10.748;2023-05-09T08:05:53;18.10;99.90
32095;DHT22;18608;53.688;10.748;2023-05-09T08:37:35;18.90;99.90
32095;DHT22;18608;53.688;10.748;2023-05-09T08:40:03;18.50;99.90
32095;DHT22;18608;53.688;10.748;2023-05-09T08:42:36;18.90;99.90
32095;DHT22;18608;53.688;10.748;2023-05-09T08:45:12;18.90;99.90
32095;DHT22;18608;53.688;10.748;2023-05-09T08:50:08;18.90;99.90
32095;DHT22;18608;53.688;10.748;2023-05-09T08:55:02;19.30;99.90
32095;DHT22;18608;53.688;10.748;2023-05-09T08:57:39;19.90;99.90
32095;DHT22;18608;53.688;10.748;2023-05-09T09:02:32;19.50;99.90
32095;DHT22;18608;53.688;10.748;2023-05-09T09:07:27;19.50;99.90
32095;DHT22;18608;53.688;10.748;2023-05-09T09:12:21;19.30;99.90
32095;DHT22;18608;53.688;10.748;2023-05-09T09:14:52;19.60;99.90
32095;DHT22;18608;53.688;10.748;2023-05-09T09:17:20;19.70;99.90
32095;DHT22;18608;53.688;10.748;2023-05-09T09:19:54;20.00;99.90
32095;DHT22;18608;53.688;10.748;2023-05-09T09:32:05;20.30;99.90
32095;DHT22;18608;53.688;10.748;2023-05-09T09:44:17;20.50;99.90
32095;DHT22;18608;53.688;10.748;2023-05-09T09:46:45;20.50;99.90
32095;DHT22;18608;53.688;10.748;2023-05-09T09:49:15;20.30;99.90
32095;DHT22;18608;53.688;10.748;2023-05-09T09:51:42;20.10;99.90
32095;DHT22;18608;53.688;10.748;2023-05-09T09:54:09;20.20;99.90
32095;DHT22;18608;53.688;10.748;2023-05-09T09:56:39;20.20;99.90
32095;DHT22;18608;53.688;10.748;2023-05-09T09:59:10;20.50;99.90
32095;DHT22;18608;53.688;10.748;2023-05-09T10:02:01;20.90;99.90
32095;DHT22;18608;53.688;10.748;2023-05-09T10:04:30;21.00;99.90
32095;DHT22;18608;53.688;10.748;2023-05-09T10:06:58;21.10;99.90
32095;DHT22;18608;53.688;10.748;2023-05-09T10:09:25;21.00;99.90
32095;DHT22;18608;53.688;10.748;2023-05-09T10:11:52;20.90;99.90
32095;DHT22;18608;53.688;10.748;2023-05-09T10:14:22;20.80;99.90
32095;DHT22;18608;53.688;10.748;2023-05-09T10:16:50;21.10;99.90
32095;DHT22;18608;53.688;10.748;2023-05-09T10:19:18;21.30;99.90
32095;DHT22;18608;53.688;10.748;2023-05-09T10:21:53;21.40;99.90
32095;DHT22;18608;53.688;10.748;2023-05-09T10:24:32;21.10;99.90
32095;DHT22;18608;53.688;10.748;2023-05-09T10:27:03;21.30;99.90
32095;DHT22;18608;53.688;10.748;2023-05-09T10:29:34;21.30;99.90
32095;DHT22;18608;53.688;10.748;2023-05-09T10:32:08;21.20;99.90
32095;DHT22;18608;53.688;10.748;2023-05-09T10:34:36;21.10;99.90
32095;DHT22;18608;53.688;10.748;2023-05-09T10:49:17;21.10;99.90
32095;DHT22;18608;53.688;10.748;2023-05-09T10:54:13;21.20;99.90
32095;DHT22;18608;53.688;10.748;2023-05-09T11:09:37;21.70;99.90
32095;DHT22;18608;53.688;10.748;2023-05-09T11:17:03;21.70;99.90
32095;DHT22;18608;53.688;10.748;2023-05-09T11:22:26;21.30;99.90
32095;DHT22;18608;53.688;10.748;2023-05-09T11:27:50;21.30;99.90
32095;DHT22;18608;53.688;10.748;2023-05-09T11:30:19;21.30;99.90
32095;DHT22;18608;53.688;10.748;2023-05-09T11:32:52;21.50;99.90
32095;DHT22;18608;53.688;10.748;2023-05-09T11:35:21;21.60;99.90
32095;DHT22;18608;53.688;10.748;2023-05-09T11:40:16;21.50;99.90
32095;DHT22;18608;53.688;10.748;2023-05-09T11:42:43;21.50;99.90
32095;DHT22;18608;53.688;10.748;2023-05-09T11:45:11;21.20;99.90
32095;DHT22;18608;53.688;10.748;2023-05-09T11:47:38;20.90;99.90
32095;DHT22;18608;53.688;10.748;2023-05-09T11:50:08;20.90;99.90
32095;DHT22;18608;53.688;10.748;2023-05-09T11:52:35;21.00;99.90
32095;DHT22;18608;53.688;10.748;2023-05-09T12:12:11;21.10;99.90
32095;DHT22;18608;53.688;10.748;2023-05-09T12:14:38;21.30;99.90
32095;DHT22;18608;53.688;10.748;2023-05-09T12:17:07;21.00;99.90
32095;DHT22;18608;53.688;10.748;2023-05-09T12:22:02;20.90;99.90
32095;DHT22;18608;53.688;10.748;2023-05-09T12:26:56;21.00;99.90
32095;DHT22;18608;53.688;10.748;2023-05-09T12:29:23;21.20;99.90
32095;DHT22;18608;53.688;10.748;2023-05-09T12:31:51;21.00;99.90
32095;DHT22;18608;53.688;10.748;2023-05-09T12:36:44;21.10;99.90
32095;DHT22;18608;53.688;10.748;2023-05-09T12:39:16;21.10;99.90
32095;DHT22;18608;53.688;10.748;2023-05-09T12:44:23;20.90;99.90
32095;DHT22;18608;53.688;10.748;2023-05-09T12:46:57;20.90;99.90
32095;DHT22;18608;53.688;10.748;2023-05-09T12:54:25;20.90;99.90
32095;DHT22;18608;53.688;10.748;2023-05-09T12:59:25;21.30;99.90
32095;DHT22;18608;53.688;10.748;2023-05-09T13:01:56;21.40;99.90
32095;DHT22;18608;53.688;10.748;2023-05-09T13:04:23;21.40;99.90
32095;DHT22;18608;53.688;10.748;2023-05-09T13:06:54;21.50;99.90
32095;DHT22;18608;53.688;10.748;2023-05-09T13:09:24;21.40;99.90
32095;DHT22;18608;53.688;10.748;2023-05-09T13:14:21;21.30;99.90
32095;DHT22;18608;53.688;10.748;2023-05-09T13:16:47;21.20;99.90
32095;DHT22;18608;53.688;10.748;2023-05-09T13:24:05;21.40;99.90
32095;DHT22;18608;53.688;10.748;2023-05-09T13:33:51;21.20;99.90
32095;DHT22;18608;53.688;10.748;2023-05-09T13:43:37;21.40;99.90
32095;DHT22;18608;53.688;10.748;2023-05-09T14:20:11;20.90;99.90
32095;DHT22;18608;53.688;10.748;2023-05-09T14:39:42;20.40;99.90
32095;DHT22;18608;53.688;10.748;2023-05-09T14:44:42;20.60;99.90
32095;DHT22;18608;53.688;10.748;2023-05-09T14:49:36;20.60;99.90
32095;DHT22;18608;53.688;10.748;2023-05-09T15:35:57;20.00;99.90
32095;DHT22;18608;53.688;10.748;2023-05-09T15:53:03;19.90;99.90
32095;DHT22;18608;53.688;10.748;2023-05-09T15:55:30;20.10;99.90
32095;DHT22;18608;53.688;10.748;2023-05-09T16:05:15;20.50;99.90
32095;DHT22;18608;53.688;10.748;2023-05-09T16:07:42;20.60;99.90
32095;DHT22;18608;53.688;10.748;2023-05-09T16:15:03;20.70;99.90
32095;DHT22;18608;53.688;10.748;2023-05-09T16:17:29;20.70;99.90
32095;DHT22;18608;53.688;10.748;2023-05-09T16:24:49;20.40;99.90
32095;DHT22;18608;53.688;10.748;2023-05-09T16:34:33;19.80;99.90
32095;DHT22;18608;53.688;10.748;2023-05-09T16:46:44;19.70;99.90
32095;DHT22;18608;53.688;10.748;2023-05-09T17:20:53;19.10;99.90
32095;DHT22;18608;53.688;10.748;2023-05-09T17:42:48;18.50;99.90
32095;DHT22;18608;53.688;10.748;2023-05-09T17:52:32;17.40;99.90
32095;DHT22;18608;53.688;10.748;2023-05-09T17:54:59;18.10;99.90
32095;DHT22;18608;53.688;10.748;2023-05-09T18:04:49;17.90;99.90
32095;DHT22;18608;53.688;10.748;2023-05-09T18:36:33;17.40;99.90
32095;DHT22;18608;53.688;10.748;2023-05-09T18:48:51;16.90;99.90
32095;DHT22;18608;53.688;10.748;2023-05-09T18:51:17;16.80;99.90
32095;DHT22;18608;53.688;10.748;2023-05-09T19:22:57;16.10;99.90
32095;DHT22;18608;53.688;10.748;2023-05-09T19:25:24;16.20;99.90
32095;DHT22;18608;53.688;10.748;2023-05-09T19:40:03;15.90;99.90
32095;DHT22;18608;53.688;10.748;2023-05-09T19:42:31;15.80;99.90
32095;DHT22;18608;53.688;10.748;2023-05-09T19:59:35;15.90;99.90
32095;DHT22;18608;53.688;10.748;2023-05-09T20:02:00;15.70;99.90
32095;DHT22;18608;53.688;10.748;2023-05-09T20:11:48;15.40;99.90
32095;DHT22;18608;53.688;10.748;2023-05-09T20:21:34;15.10;99.90
32095;DHT22;18608;53.688;10.748;2023-05-09T20:24:00;15.40;99.90
32095;DHT22;18608;53.688;10.748;2023-05-09T22:35:44;13.90;99.90
32095;DHT22;18608;53.688;10.748;2023-05-09T23:29:19;13.40;99.90
